Time;durP1;ratioP1;P1;durP2;ratioP2;P2;SDS_P1;SDS_P2;PMS_P1;PMS_P2;Temp;Humidity;BMP_temperature;BMP_pressure;BME280_temperature;BME280_humidity;BME280_pressure;Samples;Min_cycle;Max_cycle;Signal;HPM_P1;HPM_P2
2021/11/24 00:00:44;;;;;;;20.70;10.82;;;17.70;60.20;;;;;;5071196;28;20082;-78
2021/11/24 00:03:10;;;;;;;23.30;10.65;;;17.60;60.20;;;;;;5070760;28;20028;-77
2021/11/24 00:05:36;;;;;;;22.15;10.77;;;17.60;60.20;;;;;;5069880;28;20055;-78
2021/11/24 00:08:02;;;;;;;21.38;11.95;;;17.60;60.30;;;;;;5068704;28;20056;-78
2021/11/24 00:10:30;;;;;;;20.58;10.70;;;17.60;60.40;;;;;;5069159;28;20095;-77
2021/11/24 00:12:56;;;;;;;22.67;11.60;;;17.60;60.30;;;;;;5076960;28;20032;-77
2021/11/24 00:15:21;;;;;;;20.33;11.07;;;17.50;60.30;;;;;;5082883;28;20438;-77
2021/11/24 00:17:47;;;;;;;20.70;10.80;;;17.50;60.30;;;;;;5069570;28;20082;-76
2021/11/24 00:20:13;;;;;;;21.02;11.40;;;17.50;60.40;;;;;;5050204;28;20033;-76
2021/11/24 00:22:38;;;;;;;21.13;11.57;;;17.50;60.40;;;;;;5071315;28;20847;-77
2021/11/24 00:25:05;;;;;;;20.60;10.60;;;17.50;60.40;;;;;;5070717;28;20031;-77
2021/11/24 00:27:31;;;;;;;21.20;11.27;;;17.50;60.50;;;;;;5078945;28;20563;-77
2021/11/24 00:29:56;;;;;;;22.00;11.20;;;17.50;60.50;;;;;;5081590;28;20028;-77
2021/11/24 00:32:22;;;;;;;20.92;11.57;;;17.40;60.50;;;;;;5090918;28;20408;-77
2021/11/24 00:34:48;;;;;;;22.27;12.20;;;17.40;60.50;;;;;;5091259;28;20412;-77
2021/11/24 00:37:14;;;;;;;22.80;11.80;;;17.40;60.60;;;;;;5090271;28;20024;-77
2021/11/24 00:39:39;;;;;;;18.08;10.50;;;17.40;60.60;;;;;;5091012;28;20537;-77
2021/11/24 00:42:05;;;;;;;22.63;12.10;;;17.40;60.60;;;;;;5085724;28;20016;-77
2021/11/24 00:44:31;;;;;;;23.90;12.00;;;17.40;60.70;;;;;;5070701;28;20035;-77
2021/11/24 00:46:56;;;;;;;20.85;11.35;;;17.40;60.70;;;;;;5072627;28;20052;-77
2021/11/24 00:49:22;;;;;;;22.48;11.60;;;17.40;60.70;;;;;;5079101;28;20146;-77
2021/11/24 00:51:49;;;;;;;24.75;10.95;;;17.40;60.80;;;;;;5083232;28;20491;-77
2021/11/24 00:54:14;;;;;;;24.77;12.80;;;17.40;60.80;;;;;;5070435;28;20044;-77
2021/11/24 00:56:40;;;;;;;22.52;12.30;;;17.40;60.70;;;;;;5074615;28;20738;-77
2021/11/24 00:59:06;;;;;;;21.35;12.40;;;17.40;60.80;;;;;;5077531;28;20078;-77
2021/11/24 01:01:32;;;;;;;27.80;13.25;;;17.40;60.80;;;;;;5080084;28;20077;-78
2021/11/24 01:03:58;;;;;;;24.27;13.23;;;17.40;60.80;;;;;;5075057;28;20024;-78
2021/11/24 01:06:24;;;;;;;23.83;12.70;;;17.40;60.80;;;;;;5094290;28;20030;-78
2021/11/24 01:08:50;;;;;;;25.10;13.27;;;17.40;60.80;;;;;;5094494;28;20111;-77
2021/11/24 01:11:15;;;;;;;22.00;12.85;;;17.40;60.80;;;;;;5092268;28;20016;-77
2021/11/24 01:13:42;;;;;;;23.63;12.90;;;17.40;60.80;;;;;;5078188;28;20044;-77
2021/11/24 01:16:07;;;;;;;23.75;12.82;;;17.40;60.80;;;;;;5073537;28;20021;-77
2021/11/24 01:18:33;;;;;;;24.98;12.32;;;17.30;60.80;;;;;;5079273;28;20399;-78
2021/11/24 01:20:59;;;;;;;24.05;13.60;;;17.40;60.80;;;;;;5073753;28;20016;-77
2021/11/24 01:23:25;;;;;;;27.23;13.70;;;17.40;60.80;;;;;;5094027;28;20549;-77
2021/11/24 01:25:51;;;;;;;23.67;12.57;;;17.40;60.80;;;;;;5075973;28;20024;-76
2021/11/24 01:28:16;;;;;;;23.30;12.40;;;17.30;60.70;;;;;;5087311;28;20396;-76
2021/11/24 01:30:42;;;;;;;25.98;13.43;;;17.40;60.80;;;;;;5092897;28;20047;-75
2021/11/24 01:33:07;;;;;;;26.17;13.00;;;17.40;60.80;;;;;;5092215;28;20036;-77
2021/11/24 01:35:33;;;;;;;24.45;13.77;;;17.40;60.80;;;;;;5074914;28;20029;-76
2021/11/24 01:37:59;;;;;;;23.70;13.35;;;17.30;60.80;;;;;;5073236;28;20071;-77
2021/11/24 01:40:24;;;;;;;27.05;13.45;;;17.40;60.90;;;;;;5073448;28;20111;-76
2021/11/24 01:42:50;;;;;;;28.80;13.80;;;17.40;60.90;;;;;;5083273;28;20059;-76
2021/11/24 01:45:19;;;;;;;27.15;14.80;;;17.40;60.90;;;;;;5080999;28;20031;-77
2021/11/24 01:47:46;;;;;;;25.13;14.02;;;17.40;60.90;;;;;;5076687;28;20036;-77
2021/11/24 01:50:12;;;;;;;28.70;14.77;;;17.40;60.90;;;;;;5077004;28;20507;-77
2021/11/24 01:52:38;;;;;;;25.45;14.55;;;17.40;61.00;;;;;;5074091;28;20036;-77
2021/11/24 01:55:07;;;;;;;28.25;14.48;;;17.40;60.90;;;;;;5072942;28;20044;-76
2021/11/24 01:57:33;;;;;;;27.33;14.45;;;17.40;60.90;;;;;;5088670;28;20480;-77
2021/11/24 01:59:59;;;;;;;29.75;15.23;;;17.40;60.90;;;;;;5064273;28;20060;-79
2021/11/24 02:02:26;;;;;;;27.33;14.65;;;17.40;60.90;;;;;;5089266;28;20115;-77
2021/11/24 02:04:53;;;;;;;29.95;13.48;;;17.40;60.90;;;;;;5083514;28;20024;-80
2021/11/24 02:07:19;;;;;;;22.95;13.10;;;17.40;60.90;;;;;;5093198;28;20020;-78
2021/11/24 02:09:45;;;;;;;26.35;14.00;;;17.40;60.90;;;;;;5093093;28;20499;-78
2021/11/24 02:12:12;;;;;;;27.60;14.60;;;17.40;61.00;;;;;;5086863;28;20028;-77
2021/11/24 02:14:40;;;;;;;31.55;15.30;;;17.40;61.00;;;;;;5080537;28;20108;-79
2021/11/24 02:17:05;;;;;;;24.90;13.73;;;17.40;60.90;;;;;;5072414;28;20480;-79
2021/11/24 02:19:33;;;;;;;29.13;14.38;;;17.40;61.00;;;;;;5082833;28;20056;-78
2021/11/24 02:22:00;;;;;;;28.38;15.18;;;17.40;60.90;;;;;;5082721;28;20028;-78
2021/11/24 02:24:29;;;;;;;27.73;14.38;;;17.40;61.00;;;;;;5073377;28;20123;-77
2021/11/24 02:26:55;;;;;;;30.48;14.35;;;17.40;61.00;;;;;;5087256;28;20466;-77
2021/11/24 02:29:21;;;;;;;31.13;13.98;;;17.40;61.00;;;;;;5076432;28;20028;-77
2021/11/24 02:31:52;;;;;;;32.25;15.30;;;17.40;61.00;;;;;;5073108;28;20048;-77
2021/11/24 02:34:19;;;;;;;28.88;14.85;;;17.40;61.00;;;;;;5085906;28;20437;-77
2021/11/24 02:36:44;;;;;;;32.67;15.18;;;17.40;61.00;;;;;;5092222;28;20070;-76
2021/11/24 02:39:11;;;;;;;27.10;14.27;;;17.40;61.00;;;;;;5092254;28;20464;-77
2021/11/24 02:41:37;;;;;;;32.22;15.10;;;17.30;61.00;;;;;;5076720;28;20089;-77
2021/11/24 02:44:25;;;;;;;28.88;15.15;;;17.40;61.00;;;;;;5083951;28;20484;-78
2021/11/24 02:47:05;;;;;;;29.95;15.85;;;17.40;61.10;;;;;;5072502;28;20135;-77
2021/11/24 02:49:38;;;;;;;30.92;15.43;;;17.40;61.00;;;;;;5071933;28;20086;-77
2021/11/24 02:52:04;;;;;;;32.22;15.75;;;17.40;61.10;;;;;;5082331;28;20495;-77
2021/11/24 02:54:30;;;;;;;32.70;16.02;;;17.40;61.10;;;;;;5092195;28;20043;-77
2021/11/24 02:56:59;;;;;;;33.30;16.05;;;17.40;61.10;;;;;;5087743;28;20032;-77
2021/11/24 02:59:25;;;;;;;31.67;15.27;;;17.40;61.10;;;;;;5074737;28;20067;-77
2021/11/24 03:01:51;;;;;;;29.58;14.98;;;17.40;61.10;;;;;;5071863;28;20024;-77
2021/11/24 03:04:17;;;;;;;31.42;15.80;;;17.40;61.10;;;;;;5071625;28;20024;-77
2021/11/24 03:06:42;;;;;;;34.08;16.95;;;17.40;61.10;;;;;;5071770;28;20029;-77
2021/11/24 03:09:08;;;;;;;33.85;15.85;;;17.40;61.50;;;;;;5072600;28;20031;-77
2021/11/24 03:11:34;;;;;;;30.00;15.32;;;17.40;61.10;;;;;;5091995;28;20495;-77
2021/11/24 03:13:59;;;;;;;34.08;16.50;;;17.40;61.10;;;;;;5085636;28;20443;-77
2021/11/24 03:16:25;;;;;;;32.00;16.80;;;17.40;61.00;;;;;;5091880;28;20098;-77
2021/11/24 03:18:51;;;;;;;32.72;17.00;;;17.40;61.10;;;;;;5092063;28;20110;-77
2021/11/24 03:21:16;;;;;;;34.05;16.67;;;17.40;61.10;;;;;;5073385;28;20055;-77
2021/11/24 03:23:42;;;;;;;31.63;16.35;;;17.40;61.10;;;;;;5091566;28;20024;-77
2021/11/24 03:26:08;;;;;;;31.83;15.88;;;17.30;61.00;;;;;;5090750;28;20035;-77
2021/11/24 03:28:33;;;;;;;30.83;16.58;;;17.40;61.10;;;;;;5081372;28;20032;-77
2021/11/24 03:30:59;;;;;;;34.47;16.75;;;17.40;61.10;;;;;;5091354;28;20028;-77
2021/11/24 03:33:25;;;;;;;32.05;16.25;;;17.40;61.10;;;;;;5091675;28;20488;-77
2021/11/24 03:35:50;;;;;;;28.63;16.10;;;17.40;61.10;;;;;;5091843;28;20024;-77
2021/11/24 03:38:16;;;;;;;32.25;16.27;;;17.40;61.10;;;;;;5078673;28;20036;-77
2021/11/24 03:40:42;;;;;;;32.90;16.50;;;17.40;61.10;;;;;;5075918;28;20107;-78
2021/11/24 03:43:07;;;;;;;35.65;17.40;;;17.40;61.10;;;;;;5078853;28;20037;-77
2021/11/24 03:45:35;;;;;;;32.22;16.10;;;17.40;61.20;;;;;;5071186;28;20480;-77
2021/11/24 03:48:02;;;;;;;35.42;17.13;;;17.40;61.10;;;;;;5085086;28;20535;-77
2021/11/24 03:50:28;;;;;;;33.15;17.25;;;17.40;61.10;;;;;;5077655;28;20036;-77
2021/11/24 03:52:54;;;;;;;31.40;16.30;;;17.40;61.10;;;;;;5078259;28;20045;-77
2021/11/24 03:55:20;;;;;;;36.00;17.40;;;17.40;61.20;;;;;;5080045;28;20052;-78
2021/11/24 03:57:46;;;;;;;29.45;15.32;;;17.40;61.20;;;;;;5081567;28;20033;-77
2021/11/24 04:00:16;;;;;;;30.75;16.30;;;17.40;61.20;;;;;;5080243;28;20031;-77
2021/11/24 04:02:42;;;;;;;35.17;17.75;;;17.40;61.20;;;;;;5082777;28;20032;-77
2021/11/24 04:05:09;;;;;;;32.15;16.08;;;17.40;61.30;;;;;;5070751;28;20021;-77
2021/11/24 04:07:35;;;;;;;31.58;16.88;;;17.40;61.30;;;;;;5071046;28;20028;-77
2021/11/24 04:10:02;;;;;;;30.50;16.50;;;17.40;62.00;;;;;;5070645;28;20032;-77
2021/11/24 04:12:28;;;;;;;32.50;17.95;;;17.40;61.30;;;;;;5075672;28;20158;-77
2021/11/24 04:14:54;;;;;;;31.08;16.52;;;17.40;61.30;;;;;;5078721;28;20103;-77
2021/11/24 04:17:21;;;;;;;32.08;16.55;;;17.40;61.30;;;;;;5085731;28;20040;-77
2021/11/24 04:19:47;;;;;;;28.73;15.70;;;17.40;61.30;;;;;;5053726;28;20031;-77
2021/11/24 04:22:12;;;;;;;29.13;15.57;;;17.40;61.40;;;;;;5070772;28;20016;-77
2021/11/24 04:24:39;;;;;;;30.10;16.95;;;17.40;61.40;;;;;;5070875;28;20395;-77
2021/11/24 04:27:05;;;;;;;32.45;17.13;;;17.40;61.40;;;;;;5073135;28;20040;-77
2021/11/24 04:29:30;;;;;;;27.92;15.77;;;17.40;61.40;;;;;;5090467;28;20468;-76
2021/11/24 04:31:56;;;;;;;29.83;16.65;;;17.40;61.40;;;;;;5070445;28;20025;-77
2021/11/24 04:34:22;;;;;;;28.92;16.67;;;17.40;61.40;;;;;;5071094;28;20036;-77
2021/11/24 04:36:47;;;;;;;29.73;16.70;;;17.40;61.40;;;;;;5076959;28;20020;-77
2021/11/24 04:39:13;;;;;;;27.65;16.10;;;17.40;61.40;;;;;;5090666;28;20035;-77
2021/11/24 04:41:39;;;;;;;30.90;17.10;;;17.40;61.40;;;;;;5086715;28;20024;-77
2021/11/24 04:44:05;;;;;;;29.38;16.85;;;17.40;61.50;;;;;;5074639;28;20068;-77
2021/11/24 04:46:31;;;;;;;28.27;16.35;;;17.40;61.40;;;;;;5080122;28;20052;-76
2021/11/24 04:48:57;;;;;;;28.40;16.48;;;17.40;61.50;;;;;;5092006;28;20028;-77
2021/11/24 04:51:23;;;;;;;29.90;17.10;;;17.40;61.40;;;;;;5094894;28;20070;-77
2021/11/24 04:53:49;;;;;;;30.13;17.35;;;17.40;61.50;;;;;;5087897;28;20040;-77
2021/11/24 04:56:16;;;;;;;26.42;15.35;;;17.40;61.50;;;;;;5075841;28;20071;-76
2021/11/24 04:58:50;;;;;;;28.92;16.77;;;17.40;61.50;;;;;;5083624;28;20032;-77
2021/11/24 05:01:16;;;;;;;27.77;15.68;;;17.40;61.50;;;;;;5085850;28;20032;-77
2021/11/24 05:03:42;;;;;;;26.50;15.68;;;17.40;61.40;;;;;;5054293;28;20025;-77
2021/11/24 05:06:08;;;;;;;29.35;16.83;;;17.40;61.50;;;;;;5036546;28;20441;-77
2021/11/24 05:08:35;;;;;;;28.65;16.52;;;17.40;61.50;;;;;;5093795;28;20161;-77
2021/11/24 05:11:01;;;;;;;27.35;15.98;;;17.40;61.60;;;;;;5078313;28;20024;-77
2021/11/24 05:13:28;;;;;;;26.95;16.52;;;17.40;61.50;;;;;;5069188;28;20047;-77
2021/11/24 05:15:58;;;;;;;27.67;16.48;;;17.40;61.50;;;;;;5094590;28;20035;-77
2021/11/24 05:18:35;;;;;;;26.17;15.82;;;17.40;61.60;;;;;;5083620;28;20032;-77
2021/11/24 05:24:03;;;;;;;24.02;15.52;;;17.40;61.60;;;;;;5031491;28;20485;-78
2021/11/24 05:26:30;;;;;;;26.42;14.80;;;17.40;61.60;;;;;;5078242;28;20044;-77
2021/11/24 05:28:57;;;;;;;21.98;13.95;;;17.40;61.60;;;;;;5084793;28;20024;-77
2021/11/24 05:31:23;;;;;;;25.75;14.90;;;17.40;61.60;;;;;;5073943;28;20028;-77
2021/11/24 05:33:49;;;;;;;25.30;15.55;;;17.40;61.60;;;;;;5073527;28;20166;-77
2021/11/24 05:36:15;;;;;;;24.98;15.65;;;17.40;61.60;;;;;;5089824;28;20047;-77
2021/11/24 05:38:41;;;;;;;25.58;16.13;;;17.40;61.60;;;;;;5093790;28;20024;-77
2021/11/24 05:41:07;;;;;;;23.55;15.10;;;17.40;61.60;;;;;;5093268;28;20024;-77
2021/11/24 05:43:34;;;;;;;22.75;15.18;;;17.40;61.60;;;;;;5088081;28;20047;-77
2021/11/24 05:48:42;;;;;;;23.35;15.48;;;17.40;61.60;;;;;;5089068;28;20024;-76
2021/11/24 05:51:08;;;;;;;24.77;14.80;;;17.40;61.70;;;;;;5091284;28;20472;-77
2021/11/24 05:53:33;;;;;;;23.15;14.82;;;17.40;61.70;;;;;;5088118;28;20162;-77
2021/11/24 05:55:59;;;;;;;22.83;14.90;;;17.40;61.60;;;;;;5072931;28;20472;-77
2021/11/24 05:58:25;;;;;;;21.52;13.77;;;17.30;61.60;;;;;;5086176;28;20036;-77
2021/11/24 06:00:51;;;;;;;22.13;14.02;;;17.40;61.60;;;;;;5090176;28;20387;-77
2021/11/24 06:03:17;;;;;;;21.15;14.73;;;17.40;61.70;;;;;;5092958;28;20111;-77
2021/11/24 06:05:42;;;;;;;22.83;15.02;;;17.30;61.60;;;;;;5093243;28;20464;-77
2021/11/24 06:08:08;;;;;;;22.10;14.27;;;17.40;61.70;;;;;;5090693;28;20115;-77
2021/11/24 06:10:34;;;;;;;19.83;13.77;;;17.40;61.70;;;;;;5075759;28;20059;-77
2021/11/24 06:13:00;;;;;;;21.08;14.60;;;17.30;61.70;;;;;;5081739;28;20040;-77
2021/11/24 06:15:25;;;;;;;22.35;14.25;;;17.40;61.70;;;;;;5092481;28;20095;-77
2021/11/24 06:17:51;;;;;;;21.25;14.00;;;17.30;61.70;;;;;;5082908;28;20029;-77
2021/11/24 06:20:18;;;;;;;19.77;13.73;;;17.30;61.70;;;;;;5073463;28;20025;-77
2021/11/24 06:22:44;;;;;;;21.02;14.35;;;17.40;61.80;;;;;;5090484;28;20459;-77
2021/11/24 06:25:11;;;;;;;22.83;14.60;;;17.40;61.80;;;;;;5092650;28;20028;-77
2021/11/24 06:27:38;;;;;;;19.05;13.50;;;17.40;61.70;;;;;;5085953;28;20032;-77
2021/11/24 06:30:05;;;;;;;20.08;13.73;;;17.30;61.70;;;;;;5072198;28;20027;-77
2021/11/24 06:32:31;;;;;;;19.48;12.85;;;17.30;61.70;;;;;;5073364;28;20066;-77
2021/11/24 06:34:57;;;;;;;21.05;14.00;;;17.40;61.80;;;;;;5072208;28;20559;-77
2021/11/24 06:37:22;;;;;;;20.88;13.63;;;17.40;61.80;;;;;;5072675;28;20104;-77
2021/11/24 06:39:48;;;;;;;19.33;14.10;;;17.40;61.80;;;;;;5072369;28;20060;-77
2021/11/24 06:42:14;;;;;;;18.63;13.57;;;17.40;61.80;;;;;;5074737;28;20024;-78
2021/11/24 06:44:40;;;;;;;19.63;13.85;;;17.30;61.80;;;;;;5092561;28;20108;-79
2021/11/24 06:47:06;;;;;;;19.42;13.70;;;17.40;61.80;;;;;;5091928;28;20381;-77
2021/11/24 06:49:31;;;;;;;20.90;13.57;;;17.30;61.80;;;;;;5092372;28;20473;-78
2021/11/24 06:51:57;;;;;;;20.85;13.57;;;17.30;61.70;;;;;;5092112;28;20025;-77
2021/11/24 06:54:23;;;;;;;19.55;13.38;;;17.30;61.70;;;;;;5092226;28;20028;-77
2021/11/24 06:56:50;;;;;;;18.67;14.07;;;17.40;61.80;;;;;;5076872;28;20094;-77
2021/11/24 06:59:17;;;;;;;19.20;13.52;;;17.40;61.80;;;;;;5071506;28;20035;-76
2021/11/24 07:01:44;;;;;;;18.92;13.15;;;17.40;61.80;;;;;;5092039;28;20396;-77
2021/11/24 07:04:10;;;;;;;18.23;13.07;;;17.40;62.00;;;;;;5077168;28;20024;-77
2021/11/24 07:06:36;;;;;;;18.00;13.05;;;17.50;62.30;;;;;;5053705;28;20434;-77
2021/11/24 07:09:04;;;;;;;18.60;12.63;;;17.40;62.40;;;;;;5071569;28;20027;-78
2021/11/24 07:11:32;;;;;;;16.73;11.95;;;17.50;62.40;;;;;;5054567;28;20031;-77
2021/11/24 07:13:58;;;;;;;21.33;13.00;;;17.50;62.50;;;;;;5073840;28;20040;-76
2021/11/24 07:16:24;;;;;;;16.63;11.73;;;17.50;62.70;;;;;;5076483;28;20035;-77
2021/11/24 07:18:50;;;;;;;17.33;11.82;;;17.60;63.00;;;;;;5071904;28;20103;-77
2021/11/24 07:21:16;;;;;;;18.35;12.60;;;17.60;62.80;;;;;;5053420;28;20044;-76
2021/11/24 07:23:41;;;;;;;19.48;12.70;;;17.60;63.00;;;;;;5071678;28;20409;-76
2021/11/24 07:26:08;;;;;;;18.02;12.75;;;17.60;63.40;;;;;;5071395;28;20431;-76
2021/11/24 07:28:33;;;;;;;21.27;13.48;;;17.70;63.50;;;;;;5072281;28;20483;-76
2021/11/24 07:30:59;;;;;;;18.00;12.57;;;17.70;63.40;;;;;;5071065;28;20025;-76
2021/11/24 07:33:25;;;;;;;17.95;13.25;;;17.70;63.90;;;;;;5071379;28;20040;-77
2021/11/24 07:35:51;;;;;;;17.88;13.25;;;17.80;63.90;;;;;;5071629;28;20028;-77
2021/11/24 07:38:16;;;;;;;18.10;12.98;;;17.80;63.70;;;;;;5071126;28;20154;-77
2021/11/24 07:40:42;;;;;;;18.65;12.88;;;17.80;63.90;;;;;;5070899;28;20507;-76
2021/11/24 07:43:08;;;;;;;27.38;15.38;;;17.80;64.20;;;;;;5070308;28;20507;-76
2021/11/24 07:45:34;;;;;;;26.00;14.98;;;17.90;64.10;;;;;;5069542;28;20020;-77
2021/11/24 07:48:00;;;;;;;32.05;16.63;;;17.80;63.70;;;;;;5070399;28;20055;-77
2021/11/24 07:50:26;;;;;;;26.38;16.25;;;17.80;63.70;;;;;;5070903;28;20075;-77
2021/11/24 07:52:51;;;;;;;25.42;14.95;;;17.90;64.00;;;;;;5063398;28;20448;-78
2021/11/24 07:55:17;;;;;;;28.60;15.98;;;17.90;63.90;;;;;;5070990;28;20021;-78
2021/11/24 07:57:43;;;;;;;23.95;15.35;;;17.90;63.80;;;;;;5072062;28;20035;-78
2021/11/24 08:00:10;;;;;;;22.33;15.95;;;17.90;63.60;;;;;;5071630;28;20028;-78
2021/11/24 08:02:35;;;;;;;26.88;15.23;;;17.90;63.70;;;;;;5084258;28;20035;-78
2021/11/24 08:05:03;;;;;;;25.25;15.63;;;17.80;64.00;;;;;;5090527;28;20024;-78
2021/11/24 08:07:31;;;;;;;26.65;15.98;;;17.80;64.00;;;;;;5091249;28;20031;-78
2021/11/24 08:09:57;;;;;;;26.95;17.08;;;17.80;63.90;;;;;;5089400;28;20050;-78
2021/11/24 08:12:23;;;;;;;26.85;16.80;;;17.80;63.90;;;;;;5072921;28;20056;-77
2021/11/24 08:14:48;;;;;;;22.42;14.43;;;17.80;63.90;;;;;;5075158;28;20492;-76
2021/11/24 08:17:14;;;;;;;25.60;15.73;;;17.80;63.80;;;;;;5074862;28;20025;-77
2021/11/24 08:19:40;;;;;;;23.80;15.38;;;17.80;63.90;;;;;;5086881;28;20492;-76
2021/11/24 08:22:06;;;;;;;24.10;16.08;;;17.80;63.80;;;;;;5066859;28;20030;-77
2021/11/24 08:24:32;;;;;;;25.98;15.02;;;17.80;63.70;;;;;;5082461;28;20032;-77
2021/11/24 08:26:57;;;;;;;25.45;15.68;;;17.80;63.70;;;;;;5074677;28;20016;-77
2021/11/24 08:29:23;;;;;;;26.48;15.15;;;17.80;63.90;;;;;;5093719;28;20051;-77
2021/11/24 08:31:49;;;;;;;27.00;15.90;;;17.80;64.10;;;;;;5094605;28;20024;-77
2021/11/24 08:34:15;;;;;;;26.50;15.57;;;17.80;64.30;;;;;;5074529;28;20116;-77
2021/11/24 08:36:40;;;;;;;27.17;16.17;;;17.80;64.30;;;;;;5074676;28;20049;-76
2021/11/24 08:39:07;;;;;;;23.63;15.40;;;17.70;64.30;;;;;;5074497;28;20480;-77
2021/11/24 08:41:33;;;;;;;32.03;16.02;;;17.70;64.40;;;;;;5074534;28;20024;-77
2021/11/24 08:43:59;;;;;;;25.73;15.73;;;17.70;64.40;;;;;;5089376;28;20031;-77
2021/11/24 08:46:25;;;;;;;27.92;16.60;;;17.70;64.40;;;;;;5094723;28;20039;-77
2021/11/24 08:48:51;;;;;;;26.27;16.10;;;17.70;64.40;;;;;;5095032;28;20077;-77
2021/11/24 08:51:17;;;;;;;28.73;16.15;;;17.70;64.30;;;;;;5081922;28;20028;-76
2021/11/24 08:53:43;;;;;;;27.00;15.90;;;17.70;64.30;;;;;;5074321;28;20115;-77
2021/11/24 08:56:09;;;;;;;26.52;15.90;;;17.70;64.30;;;;;;5065618;28;20028;-77
2021/11/24 08:58:34;;;;;;;25.60;15.18;;;17.60;64.10;;;;;;5081946;28;20762;-77
2021/11/24 09:01:00;;;;;;;31.08;16.05;;;17.60;64.90;;;;;;5074205;28;20023;-76
2021/11/24 09:03:26;;;;;;;30.90;15.95;;;17.60;64.10;;;;;;5074394;28;20025;-77
2021/11/24 09:05:51;;;;;;;29.33;17.25;;;17.60;64.10;;;;;;5074578;28;20024;-76
2021/11/24 09:08:17;;;;;;;27.60;16.35;;;17.60;64.10;;;;;;5073988;28;20500;-76
2021/11/24 09:10:43;;;;;;;29.92;17.13;;;17.60;64.10;;;;;;5074238;28;20142;-76
2021/11/24 09:13:09;;;;;;;30.83;16.35;;;17.60;64.00;;;;;;5063822;28;20039;-77
2021/11/24 09:15:35;;;;;;;32.55;15.82;;;17.60;64.00;;;;;;5076083;28;20031;-77
2021/11/24 09:18:01;;;;;;;28.52;15.65;;;17.60;64.00;;;;;;5075903;28;20028;-77
2021/11/24 09:20:27;;;;;;;30.02;15.13;;;17.60;64.00;;;;;;5094326;28;20383;-76
2021/11/24 09:22:53;;;;;;;32.33;17.10;;;17.60;63.90;;;;;;5093546;28;20023;-77
2021/11/24 09:25:24;;;;;;;25.25;14.85;;;17.60;63.90;;;;;;5094329;28;20095;-77
2021/11/24 09:28:00;;;;;;;27.40;15.30;;;17.60;63.90;;;;;;5092249;28;20032;-77
2021/11/24 09:30:27;;;;;;;26.13;15.52;;;17.60;63.80;;;;;;5075698;28;20020;-77
2021/11/24 09:32:54;;;;;;;27.45;14.32;;;17.60;63.80;;;;;;5094183;28;20114;-77
2021/11/24 09:35:20;;;;;;;28.98;15.68;;;17.60;63.70;;;;;;5094036;28;20028;-77
2021/11/24 09:37:46;;;;;;;30.90;15.60;;;17.60;63.70;;;;;;5093756;28;20032;-77
2021/11/24 09:40:12;;;;;;;27.08;14.40;;;17.60;63.70;;;;;;5074035;28;20017;-77
2021/11/24 09:42:41;;;;;;;24.23;14.40;;;17.60;63.70;;;;;;5059807;28;20403;-77
2021/11/24 09:45:09;;;;;;;27.10;15.18;;;17.60;63.70;;;;;;5091663;28;20016;-77
2021/11/24 09:47:35;;;;;;;26.02;15.70;;;17.60;63.70;;;;;;5058472;28;20090;-76
2021/11/24 09:50:04;;;;;;;26.75;14.27;;;17.60;64.40;;;;;;5073077;28;20428;-77
2021/11/24 09:52:32;;;;;;;24.83;14.23;;;17.50;63.60;;;;;;5073041;28;20059;-77
2021/11/24 09:54:58;;;;;;;24.27;14.55;;;17.50;63.60;;;;;;5073059;28;20049;-77
2021/11/24 09:57:26;;;;;;;23.33;14.80;;;17.50;63.60;;;;;;5074332;28;20024;-77
2021/11/24 09:59:52;;;;;;;30.23;16.08;;;17.50;63.60;;;;;;5055401;28;20107;-77
2021/11/24 10:02:18;;;;;;;26.75;14.88;;;17.50;63.60;;;;;;5072868;28;20035;-77
2021/11/24 10:04:46;;;;;;;24.33;15.60;;;17.50;63.60;;;;;;5073032;28;20024;-77
2021/11/24 10:07:13;;;;;;;24.48;14.93;;;17.50;63.60;;;;;;5054647;28;20029;-77
2021/11/24 10:09:40;;;;;;;26.38;14.77;;;17.50;63.60;;;;;;5072958;28;20043;-76
2021/11/24 10:12:06;;;;;;;27.70;15.60;;;17.50;63.50;;;;;;5072607;28;20032;-77
2021/11/24 10:14:32;;;;;;;24.63;14.88;;;17.40;63.40;;;;;;5091972;28;20388;-77
2021/11/24 10:17:12;;;;;;;24.83;15.07;;;17.50;63.50;;;;;;5074684;28;20048;-77
2021/11/24 10:19:38;;;;;;;24.70;13.77;;;17.50;63.40;;;;;;5092862;28;20086;-77
2021/11/24 10:22:10;;;;;;;26.30;15.48;;;17.50;63.40;;;;;;5091086;28;20028;-84
2021/11/24 10:24:38;;;;;;;22.83;14.50;;;17.50;63.40;;;;;;5091970;28;20027;-81
2021/11/24 10:27:07;;;;;;;23.27;14.23;;;17.50;63.40;;;;;;5090658;28;20112;-80
2021/11/24 10:29:33;;;;;;;29.73;15.57;;;17.50;63.40;;;;;;5074667;28;20409;-78
2021/11/24 10:32:08;;;;;;;32.30;14.93;;;17.50;63.50;;;;;;5072229;28;20021;-81
2021/11/24 10:34:39;;;;;;;26.13;14.30;;;17.50;63.40;;;;;;5071723;28;20058;-81
2021/11/24 10:37:06;;;;;;;24.58;13.55;;;17.60;63.50;;;;;;5072186;28;20438;-81
2021/11/24 10:39:39;;;;;;;20.95;13.13;;;17.60;63.60;;;;;;5072269;28;20100;-81
2021/11/24 10:42:21;;;;;;;24.90;13.15;;;17.70;63.60;;;;;;5071864;28;20488;-80
2021/11/24 10:44:59;;;;;;;21.15;12.55;;;17.70;63.60;;;;;;5071914;28;20032;-79
2021/11/24 10:47:27;;;;;;;20.23;11.88;;;17.70;63.50;;;;;;5071415;28;20037;-80
2021/11/24 10:49:55;;;;;;;23.25;12.63;;;17.80;63.50;;;;;;5054461;28;20033;-82
2021/11/24 10:52:25;;;;;;;20.90;12.32;;;17.80;63.40;;;;;;5072217;28;20040;-81
2021/11/24 10:54:58;;;;;;;18.63;11.85;;;17.90;63.40;;;;;;5072411;28;20078;-80
2021/11/24 10:57:24;;;;;;;22.15;12.63;;;17.90;63.30;;;;;;5071946;28;20056;-78
2021/11/24 10:59:50;;;;;;;20.58;11.63;;;18.00;63.40;;;;;;5072203;28;20044;-81
2021/11/24 11:02:23;;;;;;;19.20;11.88;;;18.00;63.30;;;;;;5071507;28;20028;-81
2021/11/24 11:05:13;;;;;;;17.83;11.20;;;18.00;63.20;;;;;;5054170;28;20036;-79
2021/11/24 11:07:43;;;;;;;17.65;11.43;;;18.10;63.00;;;;;;5071122;28;20032;-79
2021/11/24 11:10:30;;;;;;;20.10;11.80;;;18.20;62.70;;;;;;5070925;28;20067;-78
2021/11/24 11:12:58;;;;;;;19.65;11.20;;;18.30;62.40;;;;;;5070031;28;20032;-78
2021/11/24 11:15:28;;;;;;;20.13;11.30;;;18.40;62.40;;;;;;5070056;28;20021;-77
2021/11/24 11:18:17;;;;;;;21.02;12.40;;;18.30;62.30;;;;;;5067173;28;20024;-77
2021/11/24 11:20:48;;;;;;;19.98;11.40;;;18.40;63.10;;;;;;5068628;28;20043;-80
2021/11/24 11:23:23;;;;;;;17.83;12.23;;;18.40;62.20;;;;;;5070127;28;20028;-78
2021/11/24 11:26:04;;;;;;;25.95;11.63;;;18.50;62.10;;;;;;5070575;28;20024;-78
2021/11/24 11:28:39;;;;;;;18.63;11.73;;;18.50;62.00;;;;;;5071378;28;20039;-78
2021/11/24 11:31:08;;;;;;;18.67;11.00;;;18.60;62.10;;;;;;5071201;28;20020;-79
2021/11/24 11:33:37;;;;;;;19.27;11.82;;;18.60;62.20;;;;;;5071353;28;20051;-79
2021/11/24 11:36:08;;;;;;;17.75;11.25;;;18.60;62.20;;;;;;5071140;28;20023;-79
2021/11/24 11:38:36;;;;;;;20.05;11.48;;;18.70;62.20;;;;;;5053340;28;20115;-80
2021/11/24 11:41:03;;;;;;;17.45;11.80;;;18.70;62.10;;;;;;5070956;28;20047;-80
2021/11/24 11:43:29;;;;;;;16.13;11.10;;;18.70;62.10;;;;;;5070046;28;20056;-78
2021/11/24 11:45:55;;;;;;;19.48;11.80;;;18.70;62.20;;;;;;5067171;28;20025;-79
2021/11/24 11:48:32;;;;;;;17.83;11.88;;;18.80;62.20;;;;;;5068900;28;20545;-79
2021/11/24 11:51:03;;;;;;;17.48;10.55;;;18.80;62.60;;;;;;5067095;28;20023;-78
2021/11/24 11:53:33;;;;;;;16.83;11.38;;;18.90;62.70;;;;;;5051392;28;20064;-78
2021/11/24 11:56:11;;;;;;;18.17;10.63;;;18.90;62.90;;;;;;5067188;28;20020;-79
2021/11/24 11:58:49;;;;;;;15.63;9.88;;;18.90;63.10;;;;;;5067120;28;20028;-79
2021/11/24 12:01:23;;;;;;;16.83;10.73;;;19.00;63.10;;;;;;5066630;28;20438;-78
2021/11/24 12:04:10;;;;;;;16.17;9.75;;;19.00;63.20;;;;;;5069379;28;20036;-78
2021/11/24 12:07:04;;;;;;;16.52;10.23;;;19.00;63.20;;;;;;5066996;28;20019;-77
2021/11/24 12:09:34;;;;;;;17.85;10.77;;;19.10;63.90;;;;;;5068638;28;20035;-77
2021/11/24 12:12:00;;;;;;;16.73;10.68;;;19.10;63.40;;;;;;5069121;28;20028;-78
2021/11/24 12:14:50;;;;;;;15.10;10.32;;;19.10;63.30;;;;;;5069314;28;20033;-77
2021/11/24 12:17:37;;;;;;;13.75;9.32;;;19.10;63.40;;;;;;5066701;28;20028;-79
2021/11/24 12:20:14;;;;;;;16.92;10.70;;;19.10;63.50;;;;;;5067587;28;20016;-81
2021/11/24 12:22:56;;;;;;;18.23;10.57;;;19.10;63.50;;;;;;5066202;28;20385;-79
2021/11/24 12:25:39;;;;;;;15.38;10.68;;;19.00;63.50;;;;;;5070022;28;20067;-77
2021/11/24 12:28:09;;;;;;;18.95;11.18;;;19.00;63.60;;;;;;5067066;28;20020;-78
2021/11/24 12:30:35;;;;;;;16.73;11.23;;;18.90;63.90;;;;;;5069624;28;20032;-78
2021/11/24 12:33:06;;;;;;;15.95;10.95;;;18.90;64.00;;;;;;5085123;28;20553;-78
2021/11/24 12:35:34;;;;;;;19.17;12.05;;;18.90;64.00;;;;;;5073488;28;20012;-80